Abertridwr, United Kingdom
Current Conditions -  °F | °C
As of 11:50 AM on Thursday 27 Nov 2014 (Local Time) from EGFF Reporting Station
Moderate Fog Moderate Fog  
Wind Chill: 40°   Ceiling: Unl
Heat Index: 45°   Visibility: 0.18mi
Dew Point: 43°   Wind: 8mph
Humidity: 93%   Direction: 110°ESE
Pressure: 29.56"   Gusts: NA
Location:  51.6°N, 3.27°W
Report Text: EGFF 271150Z 11007KT 0300 R12/P1500 FG VV/// 07/06 Q1001
Loading
Personal Weather Stations






























Interactive Weather Map New forecast layout! Learn more

10-Day Weather Forecast

Advertisements
Track Severe Weather on mobile